تهران, ایران

11:37 AM +0330 on اكتبر 23, 2017 (GMT +0330)
Mehrabad International | | Change Station

Elev 3907 ft 35.68 °N, 51.35 °E | Updated 7 minutes ago

صاف
صاف
70 °F
Feels Like 70 °F
N
9
باد متغير باد from جنوب غربی

امروز
High -- | Low -- °F
--% Chance of Precip.
دیروز
High -- | Low -- °F
Precip. -- در
فشار 30.04 در
ديد -9999.0 مايل، ميل (در برابر كيلومتر
ابری
قطره شبنم 18 °F
رطوبت 14%
بارش باران 0.00 در
برف عمیق Not available.
6:15 AM 5:15 PM
Waxing Crescent, 12% visible
METAR OIII 230800Z 23008KT CAVOK 21/M08 Q1017 A3005 NOSIG
فشار 30.04 در
ديد -9999.0 مايل، ميل (در برابر كيلومتر
ابری
قطره شبنم 18 °F
رطوبت 14%
بارش باران 0.00 در
برف عمیق Not available.
6:15 AM 5:15 PM
Waxing Crescent, 12% visible
METAR OIII 230800Z 23008KT CAVOK 21/M08 Q1017 A3005 NOSIG

Get Severe Weather Alerts

Thanks for signing up!

Be on the lookout for a verification email in your inbox.

You'll start receiving the daily forecast at 6 AM.

×

10-Day Weather Forecast

No radar image for this location.
×

Almanac

ستاره شناسی

Oct. 23, 2017 Rise Set
وقت حقیقی
تاریک و روشن اجتماعی
تاریک روشن دریایی
شفق و فلق نجومی
ماه
میزان روشنایی روز
طول روز
Tomorrow will be .
, % of the Moon is Illuminated

Today's Extremes

Country Highs Country Lows

Community

WunderPhotos

Category 6

Welcome to Category 6. This is the collective home for Weather Underground's featured writeups by Dr. Jeff Masters (right), Bob Henson (left), Chris Burt, and other regular contributors.

Nearby

تمیزی هوا

  تمیزی هوا AQ Index آلاینده
Not available.

عمق برف

Station Depth Elevation

Earthquake Activity

شهر Distance Mag. Time & Date
Minimum magnitude displayed is 2.5.

Coastal Water Temperatures

منطقه درجه حرارت

Stations

Nearby Weather Stations

Station Location دما باد سرد قطره شبنم رطوبت باد Precip. Elev ارتقا دادن Type